createdAt,value
2023-01-19T00:04:26.905Z,35.60
2023-01-19T00:07:54.021Z,38.50
2023-01-19T00:11:19.741Z,39.50
2023-01-19T00:14:09.810Z,38.90
2023-01-19T00:17:35.790Z,39.20
2023-01-19T00:20:36.493Z,40.20
2023-01-19T00:23:25.235Z,38.40
2023-01-19T00:26:14.400Z,35.40
2023-01-19T00:29:05.905Z,45.10
2023-01-19T00:32:19.422Z,40.60
2023-01-19T00:35:27.362Z,38.90
2023-01-19T00:38:04.755Z,35.50
2023-01-19T00:40:57.077Z,41.40
2023-01-19T00:44:24.921Z,39.70
2023-01-19T00:47:33.337Z,37.40
2023-01-19T00:50:53.991Z,42.10
2023-01-19T00:54:22.651Z,38.90
2023-01-19T00:57:32.742Z,39.50
2023-01-19T01:00:42.438Z,35.00
2023-01-19T01:04:10.828Z,35.70
2023-01-19T01:07:37.630Z,38.10
2023-01-19T01:10:47.865Z,37.90
2023-01-19T01:14:14.642Z,37.00
2023-01-19T01:17:11.934Z,36.10
2023-01-19T01:20:23.053Z,35.70
2023-01-19T01:23:50.188Z,32.20
2023-01-19T01:27:02.892Z,31.90
2023-01-19T01:30:31.155Z,31.80
2023-01-19T01:33:41.219Z,34.20
2023-01-19T01:37:09.466Z,29.60
2023-01-19T01:40:36.368Z,35.10
2023-01-19T01:44:03.383Z,31.40
2023-01-19T01:47:07.400Z,30.50
2023-01-19T01:50:06.952Z,31.60
2023-01-19T01:53:18.765Z,31.00
2023-01-19T01:56:14.003Z,30.50
2023-01-19T01:59:24.755Z,28.80
2023-01-19T02:05:37.222Z,29.20
2023-01-19T02:09:01.905Z,31.00
2023-01-19T02:12:28.252Z,29.00
2023-01-19T02:15:35.454Z,32.70
2023-01-19T02:18:43.899Z,31.00
2023-01-19T02:21:33.286Z,25.30
2023-01-19T02:24:41.957Z,29.80
2023-01-19T02:28:12.826Z,28.20
2023-01-19T02:31:21.282Z,28.90
2023-01-19T02:34:39.405Z,30.40
2023-01-19T02:40:54.490Z,26.80
2023-01-19T02:44:21.871Z,25.90
2023-01-19T02:47:31.221Z,29.30
2023-01-19T02:51:22.344Z,28.90
2023-01-19T02:54:26.280Z,28.10
2023-01-19T02:58:05.224Z,30.40
2023-01-19T03:01:18.527Z,27.10
2023-01-19T03:04:23.425Z,24.50
2023-01-19T03:07:23.080Z,25.40
2023-01-19T03:11:05.287Z,25.60
2023-01-19T03:14:19.026Z,25.40
2023-01-19T03:17:48.298Z,29.00
2023-01-19T03:20:55.085Z,25.00
2023-01-19T03:24:06.721Z,25.10
2023-01-19T03:27:00.053Z,28.70
2023-01-19T03:30:15.932Z,25.70
2023-01-19T03:33:49.285Z,30.30
2023-01-19T03:36:57.383Z,31.10
2023-01-19T03:39:35.628Z,25.50
2023-01-19T03:42:26.721Z,27.60
2023-01-19T03:45:04.119Z,26.00
2023-01-19T03:48:33.826Z,27.20
2023-01-19T03:51:47.671Z,27.90
2023-01-19T03:55:14.603Z,24.00
2023-01-19T03:57:47.197Z,26.20
2023-01-19T04:00:15.801Z,27.30
2023-01-19T04:03:07.134Z,25.30
2023-01-19T04:05:40.799Z,27.50
2023-01-19T04:08:08.983Z,24.40
2023-01-19T04:10:36.761Z,30.30
2023-01-19T04:13:05.679Z,22.60
2023-01-19T04:15:33.601Z,25.80
2023-01-19T04:18:04.327Z,26.00
2023-01-19T04:20:32.569Z,23.90
2023-01-19T04:23:02.190Z,25.90
2023-01-19T04:25:31.144Z,25.00
2023-01-19T04:27:58.932Z,22.80
2023-01-19T04:30:27.986Z,25.10
2023-01-19T04:32:56.801Z,26.00
2023-01-19T04:35:25.044Z,24.20
2023-01-19T04:37:52.212Z,27.20
2023-01-19T04:40:20.153Z,23.40
2023-01-19T04:42:50.653Z,23.40
2023-01-19T04:45:17.797Z,24.90
2023-01-19T04:47:44.900Z,22.80
2023-01-19T04:50:12.883Z,25.60
2023-01-19T04:52:40.540Z,24.30
2023-01-19T04:55:08.409Z,21.40
2023-01-19T04:57:36.140Z,21.30
2023-01-19T05:00:07.837Z,23.90
2023-01-19T05:02:36.330Z,22.10
2023-01-19T05:05:05.122Z,22.30
2023-01-19T05:07:33.252Z,21.80
2023-01-19T05:10:01.819Z,23.80
2023-01-19T05:12:29.893Z,23.50
2023-01-19T05:14:57.770Z,25.00
2023-01-19T05:17:26.603Z,24.20
2023-01-19T05:19:55.769Z,26.70
2023-01-19T05:22:24.997Z,20.40
2023-01-19T05:24:52.323Z,20.00
2023-01-19T05:27:20.380Z,21.30
2023-01-19T05:29:49.326Z,23.20
2023-01-19T05:32:17.552Z,22.20
2023-01-19T05:34:45.547Z,18.70
2023-01-19T05:37:12.989Z,19.20
2023-01-19T05:39:40.269Z,19.80
2023-01-19T05:42:07.956Z,19.90
2023-01-19T05:44:35.116Z,17.30
2023-01-19T05:47:02.227Z,17.90
2023-01-19T05:49:29.845Z,16.60
2023-01-19T05:51:56.894Z,18.50
2023-01-19T05:54:24.989Z,17.80
2023-01-19T05:56:52.902Z,17.30
2023-01-19T05:59:24.461Z,16.60
2023-01-19T06:01:52.647Z,17.80
2023-01-19T06:04:21.186Z,19.30
2023-01-19T06:06:50.250Z,17.60
2023-01-19T06:09:18.661Z,16.60
2023-01-19T06:11:46.821Z,17.00
2023-01-19T06:14:15.642Z,17.90
2023-01-19T06:16:42.536Z,20.70
2023-01-19T06:19:10.791Z,15.40
2023-01-19T06:21:38.171Z,16.50
2023-01-19T06:24:05.782Z,17.40
2023-01-19T06:26:33.419Z,14.50
2023-01-19T06:29:00.570Z,26.30
2023-01-19T06:31:27.688Z,18.00
2023-01-19T06:33:56.529Z,17.20
2023-01-19T06:36:24.232Z,16.80
2023-01-19T06:38:52.153Z,16.90
2023-01-19T06:41:19.807Z,18.00
2023-01-19T06:43:46.795Z,18.50
2023-01-19T06:46:14.040Z,17.70
2023-01-19T06:48:41.817Z,18.80
2023-01-19T06:51:08.989Z,18.20
2023-01-19T06:53:36.237Z,20.40
2023-01-19T06:56:05.490Z,18.90
2023-01-19T06:58:35.197Z,17.00
2023-01-19T07:01:06.311Z,22.80
2023-01-19T07:03:35.503Z,23.00
2023-01-19T07:06:03.439Z,18.60
2023-01-19T07:08:31.273Z,19.70
2023-01-19T07:11:25.305Z,20.30
2023-01-19T07:13:56.868Z,19.50
2023-01-19T07:16:24.518Z,20.30
2023-01-19T07:18:51.729Z,21.20
2023-01-19T07:21:19.525Z,25.20
2023-01-19T07:23:52.281Z,24.50
2023-01-19T07:26:22.258Z,24.90
2023-01-19T07:28:50.034Z,25.00
2023-01-19T07:31:19.489Z,21.00
2023-01-19T07:33:48.078Z,20.50
2023-01-19T07:36:15.603Z,22.60
2023-01-19T07:38:43.221Z,25.70
2023-01-19T07:41:11.876Z,27.20
2023-01-19T07:43:39.918Z,21.90
2023-01-19T07:46:09.196Z,20.10
2023-01-19T07:48:36.690Z,18.30
2023-01-19T07:51:11.773Z,22.80
2023-01-19T07:53:41.251Z,24.00
2023-01-19T07:56:08.716Z,27.00
2023-01-19T07:58:36.014Z,26.70
2023-01-19T08:01:14.557Z,26.80
2023-01-19T08:03:42.677Z,25.30
2023-01-19T08:06:24.231Z,27.00
2023-01-19T08:08:51.332Z,25.90
2023-01-19T08:11:19.273Z,26.00
2023-01-19T08:13:47.308Z,30.00
2023-01-19T08:16:15.145Z,28.50
2023-01-19T08:18:43.547Z,29.10
2023-01-19T08:21:10.949Z,28.00
2023-01-19T08:23:38.286Z,27.90
2023-01-19T08:26:30.566Z,27.10
2023-01-19T08:29:04.270Z,28.50
2023-01-19T08:31:35.911Z,30.10
2023-01-19T08:34:03.592Z,27.80
2023-01-19T08:36:30.677Z,28.30
2023-01-19T08:38:58.654Z,31.40
2023-01-19T08:41:28.655Z,30.60
2023-01-19T08:44:03.322Z,34.20
2023-01-19T08:46:31.864Z,34.80
2023-01-19T08:49:00.773Z,39.10
2023-01-19T08:51:31.104Z,33.80
2023-01-19T08:53:58.200Z,40.00
2023-01-19T08:56:26.225Z,36.10
2023-01-19T08:59:08.167Z,38.60
2023-01-19T09:01:37.521Z,35.00
2023-01-19T09:04:07.200Z,37.40
2023-01-19T09:06:37.612Z,37.80
2023-01-19T09:09:09.780Z,39.10
2023-01-19T09:11:41.280Z,37.20
2023-01-19T09:14:08.916Z,45.50
2023-01-19T09:16:49.321Z,42.50
2023-01-19T09:19:16.807Z,40.50
2023-01-19T09:21:57.570Z,41.20
2023-01-19T09:24:27.552Z,42.80
2023-01-19T09:26:56.842Z,46.30
2023-01-19T09:29:31.339Z,46.20
2023-01-19T09:32:01.641Z,46.10
2023-01-19T09:34:28.809Z,50.20
2023-01-19T09:37:20.975Z,46.80
2023-01-19T09:40:08.626Z,44.90
2023-01-19T09:43:16.492Z,46.60
2023-01-19T09:45:54.654Z,44.20
2023-01-19T09:48:51.292Z,47.60
2023-01-19T09:51:26.312Z,47.60
2023-01-19T09:54:01.168Z,54.20
2023-01-19T09:56:30.997Z,51.30
2023-01-19T09:58:59.485Z,49.80
2023-01-19T10:01:36.391Z,51.80
2023-01-19T10:04:26.722Z,54.30
2023-01-19T10:07:01.108Z,52.90
2023-01-19T10:09:54.345Z,53.60
2023-01-19T10:13:08.812Z,51.10
2023-01-19T10:15:54.614Z,61.90
2023-01-19T10:19:05.343Z,54.70
2023-01-19T10:21:47.883Z,59.40
2023-01-19T10:24:31.342Z,58.20
2023-01-19T10:27:18.491Z,55.40
2023-01-19T10:30:40.244Z,52.60
2023-01-19T10:33:29.240Z,52.30
2023-01-19T10:35:59.144Z,53.60
2023-01-19T10:38:29.448Z,54.30
2023-01-19T10:41:07.094Z,47.40
2023-01-19T10:43:44.753Z,50.40
2023-01-19T10:46:23.772Z,46.40
2023-01-19T10:49:31.801Z,40.10
2023-01-19T10:52:00.591Z,42.10
2023-01-19T10:54:35.549Z,46.40
2023-01-19T10:57:11.489Z,43.40
2023-01-19T10:59:52.852Z,48.80
2023-01-19T11:02:29.631Z,50.10
2023-01-19T11:05:22.656Z,46.80
2023-01-19T11:07:50.468Z,47.20
2023-01-19T11:10:21.438Z,50.10
2023-01-19T11:13:06.876Z,44.10
2023-01-19T11:15:46.248Z,51.40
2023-01-19T11:18:30.392Z,52.40
2023-01-19T11:21:07.573Z,52.40
2023-01-19T11:24:03.448Z,52.90
2023-01-19T11:26:37.448Z,48.70
2023-01-19T11:29:06.963Z,54.30
2023-01-19T11:31:55.806Z,52.20
2023-01-19T11:34:52.942Z,53.40
2023-01-19T11:37:20.704Z,55.90
2023-01-19T11:40:04.733Z,47.80
2023-01-19T11:43:06.800Z,51.40
2023-01-19T11:45:56.657Z,44.90
2023-01-19T11:49:00.750Z,46.10
2023-01-19T11:52:01.739Z,44.90
2023-01-19T11:55:27.082Z,42.10
2023-01-19T11:58:54.236Z,40.30
2023-01-19T12:02:19.207Z,40.30
2023-01-19T12:05:49.133Z,40.50
2023-01-19T12:09:33.664Z,45.20
2023-01-19T12:13:12.934Z,38.90
2023-01-19T12:16:12.807Z,42.00
2023-01-19T12:19:45.288Z,41.70
2023-01-19T12:22:59.871Z,39.60
2023-01-19T12:25:58.924Z,39.00
2023-01-19T12:28:40.980Z,38.60
2023-01-19T12:31:21.963Z,38.00
2023-01-19T12:33:55.072Z,32.50
2023-01-19T12:36:31.782Z,34.60
2023-01-19T12:39:09.059Z,32.40
2023-01-19T12:41:58.922Z,32.20
2023-01-19T12:45:08.461Z,32.90
2023-01-19T12:48:14.664Z,35.60
2023-01-19T12:50:50.358Z,30.40
2023-01-19T12:53:23.947Z,31.40
2023-01-19T12:56:22.641Z,30.40
2023-01-19T12:58:51.193Z,31.60
2023-01-19T13:01:22.157Z,27.40
2023-01-19T13:04:10.550Z,34.70
2023-01-19T13:06:54.561Z,29.30
2023-01-19T13:09:39.167Z,30.60
2023-01-19T13:12:35.013Z,32.00
2023-01-19T13:15:31.712Z,38.50
2023-01-19T13:18:06.646Z,30.90
2023-01-19T13:21:14.526Z,30.50
2023-01-19T13:24:30.805Z,29.40
2023-01-19T13:28:07.533Z,29.60
2023-01-19T13:31:16.981Z,28.40
2023-01-19T13:33:56.861Z,32.10
2023-01-19T13:37:14.700Z,29.50
2023-01-19T13:40:11.501Z,27.90
2023-01-19T13:43:00.901Z,30.10
2023-01-19T13:46:03.027Z,31.10
2023-01-19T13:48:35.531Z,28.10
2023-01-19T13:51:08.463Z,30.80
2023-01-19T13:53:37.317Z,32.60
2023-01-19T13:56:21.051Z,27.50
2023-01-19T13:59:13.359Z,32.80
2023-01-19T14:01:52.578Z,28.80
2023-01-19T14:04:50.171Z,61.40
2023-01-19T14:07:27.281Z,29.80
2023-01-19T14:10:04.792Z,31.60
2023-01-19T14:12:38.171Z,32.90
2023-01-19T14:15:21.480Z,32.20
2023-01-19T14:18:09.465Z,33.80
2023-01-19T14:20:39.348Z,31.10
2023-01-19T14:23:27.627Z,33.90
2023-01-19T14:25:55.785Z,38.10
2023-01-19T14:28:47.015Z,33.80
2023-01-19T14:31:25.278Z,38.10
2023-01-19T14:33:57.136Z,36.60
2023-01-19T14:36:28.841Z,37.00
2023-01-19T14:39:04.758Z,39.70
2023-01-19T14:41:38.904Z,34.10
2023-01-19T14:44:28.842Z,36.00
2023-01-19T14:46:59.930Z,41.40
2023-01-19T14:49:40.239Z,40.30
2023-01-19T14:52:27.245Z,39.60
2023-01-19T14:54:58.146Z,40.90
2023-01-19T14:57:25.602Z,38.00
2023-01-19T14:59:53.186Z,42.10
2023-01-19T15:02:21.445Z,46.10
2023-01-19T15:04:48.885Z,47.20
2023-01-19T15:07:20.924Z,46.60
2023-01-19T15:09:56.133Z,47.20
2023-01-19T15:12:26.474Z,42.80
2023-01-19T15:14:53.829Z,47.90
2023-01-19T15:17:26.868Z,43.40
2023-01-19T15:19:55.457Z,47.60
2023-01-19T15:22:31.762Z,50.30
2023-01-19T15:25:01.048Z,55.60
2023-01-19T15:27:42.933Z,51.90
2023-01-19T15:30:34.312Z,61.30
2023-01-19T15:33:04.637Z,57.30
2023-01-19T15:35:38.645Z,58.80
2023-01-19T15:38:10.683Z,60.50
2023-01-19T15:41:00.854Z,59.30
2023-01-19T15:43:34.424Z,62.90
2023-01-19T15:46:23.035Z,59.40
2023-01-19T15:48:56.520Z,59.20
2023-01-19T15:51:31.863Z,57.70
2023-01-19T15:54:03.755Z,61.20
2023-01-19T15:57:07.246Z,58.40
2023-01-19T16:00:03.929Z,53.00
2023-01-19T16:02:34.981Z,53.00
2023-01-19T16:05:10.704Z,56.20
2023-01-19T16:08:01.083Z,57.30
2023-01-19T16:10:45.103Z,56.30
2023-01-19T16:13:13.729Z,58.60
2023-01-19T16:15:44.813Z,46.40
2023-01-19T16:18:16.027Z,57.80
2023-01-19T16:20:43.438Z,59.10
2023-01-19T16:23:20.683Z,50.70
2023-01-19T16:25:59.927Z,51.80
2023-01-19T16:30:56.151Z,53.20
2023-01-19T16:33:24.063Z,54.90
2023-01-19T16:35:53.862Z,63.10
2023-01-19T16:38:41.521Z,50.00
2023-01-19T16:41:11.251Z,52.40
2023-01-19T16:43:38.899Z,57.40
2023-01-19T16:46:09.445Z,62.80
2023-01-19T16:48:47.987Z,59.00
2023-01-19T16:51:35.148Z,71.00
2023-01-19T16:54:04.254Z,65.60
2023-01-19T16:56:33.953Z,53.60
2023-01-19T16:59:23.516Z,54.60
2023-01-19T17:01:52.693Z,55.70
2023-01-19T17:04:22.926Z,60.90
2023-01-19T17:06:52.424Z,93.00
2023-01-19T17:09:20.199Z,59.50
2023-01-19T17:11:52.880Z,57.70
2023-01-19T17:14:26.010Z,62.10
2023-01-19T17:16:53.167Z,61.50
2023-01-19T17:19:25.013Z,54.70
2023-01-19T17:21:56.561Z,50.40
2023-01-19T17:24:29.298Z,55.10
2023-01-19T17:26:58.653Z,52.70
2023-01-19T17:29:29.026Z,54.10
2023-01-19T17:32:08.867Z,53.10
2023-01-19T17:34:36.175Z,60.40
2023-01-19T17:37:05.012Z,55.60
2023-01-19T17:39:36.978Z,50.10
2023-01-19T17:42:06.721Z,54.70
2023-01-19T17:44:35.031Z,56.10
2023-01-19T17:47:03.330Z,55.80
2023-01-19T17:49:35.709Z,53.90
2023-01-19T17:52:03.863Z,61.30
2023-01-19T17:54:32.454Z,54.00
2023-01-19T17:57:01.299Z,56.00
2023-01-19T17:59:28.807Z,62.00
2023-01-19T18:01:56.441Z,59.70
2023-01-19T18:04:23.857Z,90.00
2023-01-19T18:06:51.214Z,60.60
2023-01-19T18:09:39.727Z,60.40
2023-01-19T18:12:14.018Z,56.00
2023-01-19T18:14:41.968Z,60.00
2023-01-19T18:17:10.162Z,66.20
2023-01-19T18:19:38.487Z,54.60
2023-01-19T18:22:06.089Z,52.80
2023-01-19T18:24:33.600Z,67.70
2023-01-19T18:27:01.177Z,123.50
2023-01-19T18:29:29.517Z,90.30
2023-01-19T18:31:57.008Z,61.80
2023-01-19T18:34:27.294Z,67.00
2023-01-19T18:36:55.166Z,84.60
2023-01-19T18:39:22.570Z,63.80
2023-01-19T18:41:49.603Z,198.50
2023-01-19T18:44:22.779Z,298.80
2023-01-19T18:46:50.464Z,110.40
2023-01-19T18:49:17.748Z,99.20
2023-01-19T18:51:48.986Z,66.00
2023-01-19T18:54:18.044Z,71.10
2023-01-19T18:56:45.637Z,69.10
2023-01-19T18:59:13.846Z,61.10
2023-01-19T19:02:02.304Z,63.10
2023-01-19T19:04:31.092Z,58.80
2023-01-19T19:06:58.435Z,63.20
2023-01-19T19:09:25.652Z,62.50
2023-01-19T19:11:53.114Z,57.30
2023-01-19T19:14:21.039Z,57.20
2023-01-19T19:16:49.159Z,49.70
2023-01-19T19:19:17.089Z,59.50
2023-01-19T19:21:46.124Z,56.50
2023-01-19T19:24:14.498Z,53.90
2023-01-19T19:26:43.161Z,56.90
2023-01-19T19:29:12.378Z,54.10
2023-01-19T19:31:39.388Z,57.40
2023-01-19T19:34:07.033Z,55.10
2023-01-19T19:36:34.365Z,54.30
2023-01-19T19:39:01.816Z,61.00
2023-01-19T19:41:29.831Z,59.30
2023-01-19T19:43:58.587Z,55.50
2023-01-19T19:46:27.529Z,52.10
2023-01-19T19:48:57.969Z,52.50
2023-01-19T19:51:30.263Z,70.30
2023-01-19T19:54:00.504Z,77.50
2023-01-19T19:56:31.123Z,59.50
2023-01-19T19:59:24.672Z,51.00
2023-01-19T20:01:54.268Z,58.80
2023-01-19T20:04:23.206Z,56.00
2023-01-19T20:06:50.695Z,54.10
2023-01-19T20:09:18.952Z,54.60
2023-01-19T20:11:47.703Z,56.10
2023-01-19T20:14:17.135Z,107.70
2023-01-19T20:16:45.294Z,68.10
2023-01-19T20:19:14.416Z,68.20
2023-01-19T20:21:43.434Z,60.30
2023-01-19T20:24:15.712Z,60.80
2023-01-19T20:26:47.034Z,66.50
2023-01-19T20:29:14.829Z,78.50
2023-01-19T20:31:48.258Z,58.50
2023-01-19T20:34:20.765Z,52.10
2023-01-19T20:36:50.400Z,54.60
2023-01-19T20:39:24.862Z,57.20
2023-01-19T20:41:53.091Z,56.00
2023-01-19T20:44:24.027Z,46.90
2023-01-19T20:46:52.343Z,50.30
2023-01-19T20:49:20.209Z,52.00
2023-01-19T20:52:03.239Z,47.50
2023-01-19T20:54:30.980Z,42.20
2023-01-19T20:56:59.514Z,40.00
2023-01-19T20:59:34.696Z,43.50
2023-01-19T21:02:02.144Z,51.50
2023-01-19T21:04:29.687Z,43.20
2023-01-19T21:07:06.632Z,40.80
2023-01-19T21:09:35.335Z,36.80
2023-01-19T21:12:03.307Z,40.00
2023-01-19T21:14:34.252Z,46.90
2023-01-19T21:17:03.666Z,45.40
2023-01-19T21:19:32.747Z,48.50
2023-01-19T21:22:00.367Z,42.60
2023-01-19T21:25:07.440Z,48.50
2023-01-19T21:27:53.561Z,39.60
2023-01-19T21:30:41.344Z,43.90
2023-01-19T21:33:58.281Z,40.70
2023-01-19T21:37:10.718Z,42.60
2023-01-19T21:39:53.011Z,44.00
2023-01-19T21:43:01.096Z,47.50
2023-01-19T21:46:30.658Z,40.90
2023-01-19T21:50:20.861Z,45.70
2023-01-19T21:54:20.979Z,35.00
2023-01-19T21:58:08.619Z,40.10
2023-01-19T22:02:01.962Z,36.00
2023-01-19T22:05:49.680Z,34.10
2023-01-19T22:09:38.237Z,39.00
2023-01-19T22:12:54.543Z,33.90
2023-01-19T22:16:07.461Z,31.70
2023-01-19T22:19:41.584Z,31.50
2023-01-19T22:22:39.338Z,33.40
2023-01-19T22:26:03.449Z,33.70
2023-01-19T22:28:41.318Z,28.00
2023-01-19T22:31:13.136Z,28.70
2023-01-19T22:34:40.470Z,30.50
2023-01-19T22:37:47.855Z,28.10
2023-01-19T22:41:16.188Z,27.10
2023-01-19T22:44:43.349Z,32.80
2023-01-19T22:48:10.234Z,30.60
2023-01-19T22:51:10.218Z,29.80
2023-01-19T22:53:37.501Z,25.50
2023-01-19T22:56:24.597Z,30.80
2023-01-19T22:58:54.003Z,30.20
2023-01-19T23:01:24.652Z,29.60
2023-01-19T23:04:47.529Z,29.00
2023-01-19T23:07:36.216Z,26.30
2023-01-19T23:10:30.365Z,28.30
2023-01-19T23:13:01.524Z,31.50
2023-01-19T23:15:49.630Z,33.00
2023-01-19T23:18:28.976Z,28.40
2023-01-19T23:21:06.890Z,29.90
2023-01-19T23:23:56.207Z,31.90
2023-01-19T23:26:25.648Z,27.90
2023-01-19T23:29:39.162Z,31.00
2023-01-19T23:32:54.331Z,31.30
2023-01-19T23:35:22.082Z,26.10
2023-01-19T23:37:49.706Z,30.30
2023-01-19T23:40:18.610Z,28.50
2023-01-19T23:42:47.245Z,31.10
2023-01-19T23:45:14.867Z,26.70
2023-01-19T23:47:43.862Z,32.00
2023-01-19T23:50:11.866Z,30.40
2023-01-19T23:52:39.273Z,30.40
2023-01-19T23:55:07.557Z,29.70
2023-01-19T23:57:34.959Z,30.40
